Time;durP1;ratioP1;P1;durP2;ratioP2;P2;SDS_P1;SDS_P2;PMS_P1;PMS_P2;Temp;Humidity;BMP_temperature;BMP_pressure;BME280_temperature;BME280_humidity;BME280_pressure;Samples;Min_cycle;Max_cycle;Signal;HPM_P1;HPM_P2
2024/02/04 00:01:29;;;;;;;70.38;39.92;;;10.50;99.90;;;;;;5056263;28;20390;-68
2024/02/04 00:03:54;;;;;;;65.07;38.65;;;10.50;99.90;;;;;;5056156;28;20033;-68
2024/02/04 00:06:21;;;;;;;65.72;38.80;;;10.40;99.90;;;;;;5055999;28;20478;-68
2024/02/04 00:08:46;;;;;;;67.00;38.08;;;10.50;99.90;;;;;;5056098;28;20025;-68
2024/02/04 00:11:12;;;;;;;71.57;40.15;;;10.50;99.90;;;;;;5056265;28;20036;-68
2024/02/04 00:13:38;;;;;;;70.28;39.88;;;10.40;99.90;;;;;;5056175;28;20095;-68
2024/02/04 00:16:05;;;;;;;66.03;38.80;;;10.40;99.90;;;;;;5055765;28;20067;-68
2024/02/04 00:18:30;;;;;;;69.32;40.72;;;10.40;99.90;;;;;;5056092;28;20025;-68
2024/02/04 00:20:56;;;;;;;79.60;43.55;;;10.40;99.90;;;;;;5055964;28;20372;-68
2024/02/04 00:23:21;;;;;;;80.97;44.72;;;10.40;99.90;;;;;;5055578;28;20052;-68
2024/02/04 00:25:47;;;;;;;80.50;44.28;;;10.30;99.90;;;;;;5055572;28;20029;-67
2024/02/04 00:28:12;;;;;;;82.70;45.08;;;10.40;99.90;;;;;;5055932;28;20025;-67
2024/02/04 00:30:38;;;;;;;79.45;42.97;;;10.30;99.90;;;;;;5055849;28;20403;-67
2024/02/04 00:33:04;;;;;;;76.78;41.20;;;10.30;99.90;;;;;;5055426;28;20032;-67
2024/02/04 00:35:30;;;;;;;79.13;42.05;;;10.30;99.90;;;;;;5055745;28;20021;-68
2024/02/04 00:37:56;;;;;;;79.70;42.17;;;10.30;99.90;;;;;;5055637;28;20047;-67
2024/02/04 00:40:21;;;;;;;78.47;44.08;;;10.30;99.90;;;;;;5055507;28;20029;-67
2024/02/04 00:42:47;;;;;;;82.25;43.95;;;10.30;99.90;;;;;;5055450;28;20032;-68
2024/02/04 00:45:13;;;;;;;87.05;43.25;;;10.30;99.90;;;;;;5055174;28;20045;-67
2024/02/04 00:47:38;;;;;;;87.03;43.20;;;10.30;99.90;;;;;;5055493;28;20025;-67
2024/02/04 00:50:04;;;;;;;84.75;42.83;;;10.30;99.90;;;;;;5055254;28;20395;-67
2024/02/04 00:52:30;;;;;;;87.22;44.53;;;10.20;99.90;;;;;;5055248;28;20025;-67
2024/02/04 00:54:55;;;;;;;79.07;43.63;;;10.20;99.90;;;;;;5054922;28;20084;-68
2024/02/04 00:57:21;;;;;;;88.13;44.28;;;10.30;99.90;;;;;;5055208;28;20068;-68
2024/02/04 00:59:46;;;;;;;90.53;47.50;;;10.20;99.90;;;;;;5055327;28;20033;-68
2024/02/04 01:02:12;;;;;;;82.60;43.20;;;10.30;99.90;;;;;;5055161;28;20029;-68
2024/02/04 01:04:37;;;;;;;78.00;42.03;;;10.30;99.90;;;;;;5055060;28;20029;-68
2024/02/04 01:07:03;;;;;;;83.72;43.10;;;10.30;99.90;;;;;;5055163;28;20490;-68
2024/02/04 01:09:29;;;;;;;77.95;42.95;;;10.20;99.90;;;;;;5054902;28;20029;-68
2024/02/04 01:11:54;;;;;;;77.43;41.33;;;10.20;99.90;;;;;;5055123;28;20032;-68
2024/02/04 01:14:20;;;;;;;74.82;42.20;;;10.20;99.90;;;;;;5054845;28;20532;-67
2024/02/04 01:16:45;;;;;;;80.53;39.70;;;10.30;99.90;;;;;;5054831;28;20086;-67
2024/02/04 01:19:11;;;;;;;75.68;40.58;;;10.20;99.90;;;;;;5055096;28;20036;-67
2024/02/04 01:21:36;;;;;;;73.05;39.90;;;10.20;99.90;;;;;;5054679;28;20483;-67
2024/02/04 01:24:02;;;;;;;76.43;40.95;;;10.20;99.90;;;;;;5054805;28;20039;-67
2024/02/04 01:26:28;;;;;;;72.57;38.42;;;10.20;99.90;;;;;;5054503;28;20029;-67
2024/02/04 01:28:53;;;;;;;72.72;38.53;;;10.10;99.90;;;;;;5054767;28;20395;-67
2024/02/04 01:31:19;;;;;;;72.10;37.75;;;10.20;99.90;;;;;;5054533;28;20032;-67
2024/02/04 01:33:44;;;;;;;74.18;38.50;;;10.10;99.90;;;;;;5054579;28;20086;-67
2024/02/04 01:36:10;;;;;;;66.28;36.53;;;10.10;99.90;;;;;;5054392;28;20093;-67
2024/02/04 01:38:35;;;;;;;66.88;35.78;;;10.10;99.90;;;;;;5054392;28;20086;-67
2024/02/04 01:41:01;;;;;;;66.90;36.35;;;10.10;99.90;;;;;;5054546;28;20542;-67
2024/02/04 01:43:26;;;;;;;57.92;33.25;;;10.10;99.90;;;;;;5054091;28;20064;-67
2024/02/04 01:45:52;;;;;;;59.63;32.60;;;10.10;99.90;;;;;;5054177;28;20398;-67
2024/02/04 01:48:19;;;;;;;54.83;31.08;;;10.10;99.90;;;;;;5054254;28;20033;-67
2024/02/04 01:50:47;;;;;;;56.22;31.58;;;10.10;99.90;;;;;;5054351;28;20029;-67
2024/02/04 01:53:14;;;;;;;52.67;28.27;;;10.10;99.90;;;;;;5054197;28;20474;-67
2024/02/04 01:55:40;;;;;;;50.75;28.17;;;10.10;99.90;;;;;;5054042;28;20479;-67
2024/02/04 01:58:06;;;;;;;50.13;27.35;;;10.10;99.90;;;;;;5053934;28;20083;-67
2024/02/04 02:00:32;;;;;;;44.05;25.80;;;10.00;99.90;;;;;;5054154;28;20032;-67
2024/02/04 02:02:59;;;;;;;48.05;27.15;;;10.10;99.90;;;;;;5054111;28;20083;-67
2024/02/04 02:05:26;;;;;;;49.25;27.25;;;10.00;99.90;;;;;;5053624;28;20039;-67
2024/02/04 02:07:52;;;;;;;48.85;27.70;;;10.00;99.90;;;;;;5052551;28;20036;-66
2024/02/04 02:10:20;;;;;;;48.95;27.13;;;10.00;99.90;;;;;;5053856;28;20033;-67
2024/02/04 02:13:00;;;;;;;47.15;27.17;;;10.00;99.90;;;;;;5053787;28;20033;-67
2024/02/04 02:15:32;;;;;;;39.92;24.58;;;10.00;99.90;;;;;;5052543;28;20483;-66
2024/02/04 02:18:04;;;;;;;43.70;24.48;;;10.00;99.90;;;;;;5053446;28;20033;-67
2024/02/04 02:20:55;;;;;;;46.08;25.65;;;10.00;99.90;;;;;;5053779;28;20493;-66
2024/02/04 02:23:31;;;;;;;41.05;23.63;;;10.00;99.90;;;;;;5053701;28;20044;-66
2024/02/04 02:25:56;;;;;;;42.33;24.63;;;10.00;99.90;;;;;;5053532;28;20036;-66
2024/02/04 02:28:22;;;;;;;42.63;23.63;;;10.00;99.90;;;;;;5053534;28;20021;-67
2024/02/04 02:30:47;;;;;;;42.83;24.70;;;10.00;99.90;;;;;;5053585;28;20368;-66
2024/02/04 02:33:13;;;;;;;42.28;25.17;;;10.00;99.90;;;;;;5053475;28;20025;-67
2024/02/04 02:35:39;;;;;;;42.22;26.13;;;10.00;99.90;;;;;;5053571;28;20033;-67
2024/02/04 02:38:35;;;;;;;45.50;26.17;;;10.00;99.90;;;;;;5053508;28;20418;-67
2024/02/04 02:41:06;;;;;;;40.08;24.67;;;10.00;99.90;;;;;;5053432;28;20116;-67
2024/02/04 02:43:34;;;;;;;40.40;23.63;;;10.00;99.90;;;;;;5053108;28;20041;-67
2024/02/04 02:46:00;;;;;;;40.35;23.95;;;10.00;99.90;;;;;;5053029;28;20033;-67
2024/02/04 02:48:25;;;;;;;38.53;22.80;;;10.10;99.90;;;;;;5053217;28;20036;-67
2024/02/04 02:50:51;;;;;;;35.65;22.10;;;10.00;99.90;;;;;;5053275;28;20055;-67
2024/02/04 02:53:19;;;;;;;34.03;21.55;;;10.10;99.90;;;;;;5053308;28;20033;-66
2024/02/04 02:55:46;;;;;;;35.25;22.98;;;10.10;99.90;;;;;;5053391;28;20037;-67
2024/02/04 02:58:12;;;;;;;37.50;22.15;;;10.10;99.90;;;;;;5053286;28;20454;-66
2024/02/04 03:00:38;;;;;;;32.33;19.27;;;10.20;99.90;;;;;;5053061;28;20108;-67
2024/02/04 03:03:04;;;;;;;31.40;19.52;;;10.20;99.90;;;;;;5053084;28;20099;-67
2024/02/04 03:05:29;;;;;;;35.53;19.73;;;10.20;99.90;;;;;;5052859;28;20025;-67
2024/02/04 03:07:55;;;;;;;33.38;19.23;;;10.20;99.90;;;;;;5053145;28;20033;-67
2024/02/04 03:10:20;;;;;;;32.97;19.42;;;10.20;99.90;;;;;;5053229;28;20032;-67
2024/02/04 03:12:46;;;;;;;32.67;18.98;;;10.20;99.90;;;;;;5053214;28;20056;-67
2024/02/04 03:15:11;;;;;;;30.83;19.20;;;10.20;99.90;;;;;;5052944;28;20035;-67
2024/02/04 03:17:37;;;;;;;36.42;18.48;;;10.20;99.90;;;;;;5054648;28;20041;-67
2024/02/04 03:20:03;;;;;;;36.30;19.05;;;10.20;99.90;;;;;;5057027;28;20025;-67
2024/02/04 03:22:28;;;;;;;31.88;18.50;;;10.20;99.90;;;;;;5057129;28;20090;-67
2024/02/04 03:24:54;;;;;;;36.00;19.08;;;10.20;99.90;;;;;;5057119;28;20041;-67
2024/02/04 03:27:21;;;;;;;36.38;19.33;;;10.20;99.90;;;;;;5056957;28;20029;-67
2024/02/04 03:29:46;;;;;;;33.83;18.75;;;10.20;99.90;;;;;;5056937;28;20021;-66
2024/02/04 03:32:12;;;;;;;37.15;18.20;;;10.20;99.90;;;;;;5056972;28;20028;-67
2024/02/04 03:34:39;;;;;;;31.15;18.10;;;10.10;99.90;;;;;;5056572;28;20025;-67
2024/02/04 03:37:05;;;;;;;31.80;17.30;;;10.10;99.90;;;;;;5056627;28;20025;-67
2024/02/04 03:39:30;;;;;;;33.60;17.08;;;10.10;99.90;;;;;;5056653;28;20036;-66
2024/02/04 03:41:56;;;;;;;31.85;17.90;;;10.10;99.90;;;;;;5056822;28;20383;-67
2024/02/04 03:44:22;;;;;;;31.65;16.20;;;10.10;99.90;;;;;;5056443;28;20041;-67
2024/02/04 03:46:48;;;;;;;30.35;16.13;;;10.10;99.90;;;;;;5056543;28;20033;-67
2024/02/04 03:49:14;;;;;;;25.08;14.25;;;10.10;99.90;;;;;;5056524;28;20021;-67
2024/02/04 03:51:40;;;;;;;29.23;14.93;;;10.10;99.90;;;;;;5056432;28;20087;-67
2024/02/04 03:54:05;;;;;;;26.23;14.35;;;10.10;99.90;;;;;;5056606;28;20104;-67
2024/02/04 03:56:31;;;;;;;24.63;13.77;;;10.10;99.90;;;;;;5056351;28;20387;-67
2024/02/04 03:58:56;;;;;;;26.60;14.85;;;10.00;99.90;;;;;;5056297;28;20029;-67
2024/02/04 04:01:22;;;;;;;26.02;14.52;;;10.00;99.90;;;;;;5056284;28;20422;-67
2024/02/04 04:03:47;;;;;;;26.88;14.90;;;10.10;99.90;;;;;;5056315;28;20047;-67
2024/02/04 04:06:13;;;;;;;31.35;15.77;;;10.00;99.90;;;;;;5056032;28;20506;-66
2024/02/04 04:08:38;;;;;;;39.40;17.73;;;10.00;99.90;;;;;;5056088;28;20063;-67
2024/02/04 04:11:04;;;;;;;35.65;18.60;;;10.00;99.90;;;;;;5056049;28;20067;-67
2024/02/04 04:13:32;;;;;;;34.70;17.92;;;10.00;99.90;;;;;;5056040;28;20017;-67
2024/02/04 04:15:57;;;;;;;40.40;20.00;;;10.00;99.90;;;;;;5056172;28;20025;-67
2024/02/04 04:18:23;;;;;;;39.85;19.55;;;10.00;99.90;;;;;;5056147;28;20033;-67
2024/02/04 04:20:48;;;;;;;39.85;20.45;;;10.00;99.90;;;;;;5055928;28;20025;-67
2024/02/04 04:23:14;;;;;;;42.53;20.98;;;10.00;99.90;;;;;;5056040;28;20036;-67
2024/02/04 04:25:39;;;;;;;46.83;20.55;;;10.00;99.90;;;;;;5055776;28;20119;-68
2024/02/04 04:28:05;;;;;;;50.25;22.33;;;10.00;99.90;;;;;;5055722;28;20427;-68
2024/02/04 04:30:30;;;;;;;46.33;22.02;;;10.00;99.90;;;;;;5054875;28;20025;-67
2024/02/04 04:32:57;;;;;;;45.88;22.02;;;9.90;99.90;;;;;;5055713;28;20033;-67
2024/02/04 04:35:23;;;;;;;42.80;20.83;;;10.00;99.90;;;;;;5055755;28;20083;-67
2024/02/04 04:37:48;;;;;;;43.17;20.38;;;10.00;99.90;;;;;;5055660;28;20029;-67
2024/02/04 04:40:14;;;;;;;46.00;21.05;;;9.90;99.90;;;;;;5055530;28;20032;-67
2024/02/04 04:42:40;;;;;;;44.90;20.80;;;9.90;99.90;;;;;;5055616;28;20098;-68
2024/02/04 04:45:07;;;;;;;41.85;20.67;;;9.90;99.90;;;;;;5055171;28;20541;-68
2024/02/04 04:47:33;;;;;;;39.17;19.77;;;9.90;99.90;;;;;;5055396;28;20017;-67
2024/02/04 04:49:59;;;;;;;37.03;18.55;;;9.90;99.90;;;;;;5055390;28;20027;-68
2024/02/04 04:52:24;;;;;;;42.50;18.63;;;9.90;99.90;;;;;;5055461;28;20033;-68
2024/02/04 04:54:50;;;;;;;36.67;18.40;;;9.90;99.90;;;;;;5055487;28;20036;-68
2024/02/04 04:57:15;;;;;;;33.47;18.25;;;9.90;99.90;;;;;;5055477;28;20025;-68
2024/02/04 04:59:41;;;;;;;42.75;19.10;;;9.90;99.90;;;;;;5055273;28;20025;-68
2024/02/04 05:02:07;;;;;;;39.42;19.63;;;9.90;99.90;;;;;;5055080;28;20033;-68
2024/02/04 05:04:32;;;;;;;39.67;19.75;;;9.90;99.90;;;;;;5054951;28;20541;-68
2024/02/04 05:06:58;;;;;;;40.47;20.10;;;9.80;99.90;;;;;;5054983;28;20025;-68
2024/02/04 05:09:23;;;;;;;36.90;19.80;;;9.80;99.90;;;;;;5055233;28;20079;-68
2024/02/04 05:11:49;;;;;;;39.70;21.05;;;9.90;99.90;;;;;;5055050;28;20540;-68
2024/02/04 05:14:14;;;;;;;47.55;22.77;;;9.80;99.90;;;;;;5054888;28;20091;-68
2024/02/04 05:16:40;;;;;;;49.72;23.95;;;9.90;99.90;;;;;;5054824;28;20039;-67
2024/02/04 05:19:06;;;;;;;50.00;25.08;;;9.90;99.90;;;;;;5054793;28;20082;-68
2024/02/04 05:21:31;;;;;;;50.97;25.65;;;9.90;99.90;;;;;;5054821;28;20040;-67
2024/02/04 05:23:56;;;;;;;54.20;25.02;;;9.90;99.90;;;;;;5054524;28;20122;-67
2024/02/04 05:26:22;;;;;;;54.72;26.42;;;9.90;99.90;;;;;;5054728;28;20126;-67
2024/02/04 05:28:47;;;;;;;55.20;27.20;;;9.90;99.90;;;;;;5054697;28;20029;-67
2024/02/04 05:31:13;;;;;;;58.85;26.90;;;9.90;99.90;;;;;;5054362;28;20032;-67
2024/02/04 05:33:38;;;;;;;62.80;29.80;;;9.90;99.90;;;;;;5054491;28;20036;-67
2024/02/04 05:36:04;;;;;;;59.63;28.25;;;9.90;99.90;;;;;;5054687;28;20043;-67
2024/02/04 05:38:30;;;;;;;61.13;29.45;;;9.90;99.90;;;;;;5054482;28;20394;-67
2024/02/04 05:40:56;;;;;;;60.50;28.80;;;9.90;99.90;;;;;;5054310;28;20550;-68
2024/02/04 05:43:22;;;;;;;62.60;29.90;;;9.90;99.90;;;;;;5054261;28;20120;-67
2024/02/04 05:45:47;;;;;;;66.47;30.50;;;9.90;99.90;;;;;;5054347;28;20033;-68
2024/02/04 05:48:13;;;;;;;64.22;28.35;;;9.90;99.90;;;;;;5054214;28;20037;-68
2024/02/04 05:50:39;;;;;;;67.20;29.50;;;9.90;99.90;;;;;;5054155;28;20024;-67
2024/02/04 05:53:05;;;;;;;62.13;29.73;;;9.90;99.90;;;;;;5054147;28;20044;-67
2024/02/04 05:55:30;;;;;;;64.50;28.77;;;10.00;99.90;;;;;;5054113;28;20029;-68
2024/02/04 05:57:56;;;;;;;62.08;29.80;;;10.00;99.90;;;;;;5054237;28;20032;-68
2024/02/04 06:00:22;;;;;;;59.45;27.05;;;9.90;99.90;;;;;;5054015;28;20029;-68
2024/02/04 06:02:48;;;;;;;60.63;26.73;;;9.90;99.90;;;;;;5054207;28;20025;-68
2024/02/04 06:05:14;;;;;;;59.80;25.90;;;9.80;99.90;;;;;;5054000;28;20506;-68
2024/02/04 06:07:42;;;;;;;53.25;23.92;;;9.80;99.90;;;;;;5053687;28;20025;-68
2024/02/04 06:10:09;;;;;;;52.97;23.25;;;9.80;99.90;;;;;;5054006;28;20498;-68
2024/02/04 06:12:35;;;;;;;48.80;23.45;;;9.80;99.90;;;;;;5053980;28;20056;-68
2024/02/04 06:15:01;;;;;;;48.88;22.90;;;9.80;99.90;;;;;;5053777;28;20106;-68
2024/02/04 06:17:26;;;;;;;50.83;22.75;;;9.80;99.90;;;;;;5053447;28;20471;-68
2024/02/04 06:19:52;;;;;;;43.10;21.27;;;9.80;99.90;;;;;;5053835;28;20445;-68
2024/02/04 06:22:17;;;;;;;47.85;21.63;;;9.80;99.90;;;;;;5053451;28;20021;-68
2024/02/04 06:24:43;;;;;;;49.30;23.15;;;9.70;99.90;;;;;;5053489;28;20487;-68
2024/02/04 06:27:08;;;;;;;49.05;22.55;;;9.70;99.90;;;;;;5053710;28;20079;-68
2024/02/04 06:29:34;;;;;;;47.63;23.05;;;9.70;99.90;;;;;;5053611;28;20025;-68
2024/02/04 06:32:00;;;;;;;49.78;22.13;;;9.70;99.90;;;;;;5053182;28;20013;-68
2024/02/04 06:34:25;;;;;;;44.95;22.55;;;9.70;99.90;;;;;;5053109;28;20024;-68
2024/02/04 06:36:51;;;;;;;48.92;23.92;;;9.70;99.90;;;;;;5053627;28;20029;-68
2024/02/04 06:39:16;;;;;;;47.40;23.27;;;9.70;99.90;;;;;;5053641;28;20082;-68
2024/02/04 06:41:42;;;;;;;52.80;26.00;;;9.70;99.90;;;;;;5053407;28;20395;-68
2024/02/04 06:44:08;;;;;;;51.85;26.40;;;9.70;99.90;;;;;;5053090;28;20098;-68
2024/02/04 06:46:33;;;;;;;57.17;27.25;;;9.80;99.90;;;;;;5053184;28;20536;-68
2024/02/04 06:48:59;;;;;;;55.13;26.55;;;9.80;99.90;;;;;;5053420;28;20025;-68
2024/02/04 06:51:24;;;;;;;55.70;28.20;;;9.80;99.90;;;;;;5053346;28;20035;-68
2024/02/04 06:53:50;;;;;;;53.40;26.92;;;9.80;99.90;;;;;;5052632;28;20494;-68
2024/02/04 06:56:15;;;;;;;55.42;26.98;;;9.80;99.90;;;;;;5053290;28;20095;-68
2024/02/04 06:58:42;;;;;;;57.22;27.13;;;9.80;99.90;;;;;;5053121;28;20029;-68
2024/02/04 07:01:08;;;;;;;56.00;27.90;;;9.80;99.90;;;;;;5053309;28;20029;-68
2024/02/04 07:03:33;;;;;;;64.85;29.60;;;9.80;99.90;;;;;;5053227;28;20039;-69
2024/02/04 07:05:59;;;;;;;58.00;27.90;;;9.80;99.90;;;;;;5052958;28;20029;-68
2024/02/04 07:08:25;;;;;;;59.70;28.58;;;9.80;99.90;;;;;;5052978;28;20049;-68
2024/02/04 07:10:51;;;;;;;59.05;29.17;;;9.80;99.90;;;;;;5052890;28;20025;-68
2024/02/04 07:13:17;;;;;;;55.58;28.42;;;9.80;99.90;;;;;;5052972;28;20025;-68
2024/02/04 07:15:42;;;;;;;57.88;29.58;;;9.80;99.90;;;;;;5053193;28;20068;-68
2024/02/04 07:18:08;;;;;;;59.45;29.27;;;9.80;99.90;;;;;;5052714;28;20071;-68
2024/02/04 07:20:33;;;;;;;53.00;28.88;;;9.80;99.90;;;;;;5052950;28;20086;-68
2024/02/04 07:22:59;;;;;;;55.65;30.08;;;9.80;99.90;;;;;;5053125;28;20039;-68
2024/02/04 07:25:25;;;;;;;58.42;30.42;;;9.90;99.90;;;;;;5053035;28;20048;-67
2024/02/04 07:27:50;;;;;;;58.42;30.42;;;9.90;99.90;;;;;;5053096;28;20045;-67
2024/02/04 07:30:17;;;;;;;56.03;28.33;;;9.80;99.90;;;;;;5052968;28;20083;-67
2024/02/04 07:32:42;;;;;;;51.30;26.98;;;9.80;99.90;;;;;;5052795;28;20483;-68
2024/02/04 07:35:08;;;;;;;50.20;25.88;;;9.80;99.90;;;;;;5053006;28;20125;-68
2024/02/04 07:37:35;;;;;;;44.20;23.83;;;9.90;99.90;;;;;;5052642;28;20042;-68
2024/02/04 07:40:01;;;;;;;42.05;22.30;;;9.90;99.90;;;;;;5052994;28;20029;-68
2024/02/04 07:42:27;;;;;;;37.92;20.67;;;9.90;99.90;;;;;;5052932;28;20029;-68
2024/02/04 07:44:52;;;;;;;37.00;19.35;;;10.00;99.90;;;;;;5052512;28;20068;-68
2024/02/04 07:47:21;;;;;;;30.50;17.80;;;10.00;99.90;;;;;;5052937;28;20090;-68
2024/02/04 07:49:47;;;;;;;40.90;19.02;;;10.00;99.90;;;;;;5052898;28;20108;-68
2024/02/04 07:52:12;;;;;;;26.27;17.67;;;10.00;99.90;;;;;;5052812;28;20462;-68
2024/02/04 07:54:38;;;;;;;29.55;18.27;;;10.00;99.90;;;;;;5052758;28;20056;-68
2024/02/04 07:57:04;;;;;;;31.67;19.08;;;10.00;99.90;;;;;;5052795;28;20037;-68
2024/02/04 07:59:29;;;;;;;29.30;18.48;;;10.00;99.90;;;;;;5052544;28;20029;-68
2024/02/04 08:01:55;;;;;;;34.08;19.48;;;10.10;99.90;;;;;;5052758;28;20439;-68
2024/02/04 08:04:20;;;;;;;32.17;18.83;;;10.10;99.90;;;;;;5053745;28;20033;-68
2024/02/04 08:06:46;;;;;;;30.50;17.67;;;10.10;99.90;;;;;;5055973;28;20052;-67
2024/02/04 08:09:12;;;;;;;28.60;17.27;;;10.10;99.90;;;;;;5056285;28;20029;-68
2024/02/04 08:11:37;;;;;;;29.88;17.17;;;10.10;99.90;;;;;;5056047;28;20021;-68
2024/02/04 08:14:03;;;;;;;33.47;18.08;;;10.10;99.90;;;;;;5056064;28;20534;-68
2024/02/04 08:16:29;;;;;;;30.67;17.38;;;10.10;99.90;;;;;;5056202;28;20075;-68
2024/02/04 08:18:55;;;;;;;31.65;18.42;;;10.10;99.90;;;;;;5055832;28;20029;-68
2024/02/04 08:21:20;;;;;;;33.20;19.00;;;10.10;99.90;;;;;;5055787;28;20514;-68
2024/02/04 08:23:46;;;;;;;39.88;19.02;;;10.10;99.90;;;;;;5055980;28;20032;-68
2024/02/04 08:26:11;;;;;;;32.47;19.15;;;10.20;99.90;;;;;;5055472;28;20079;-68
2024/02/04 08:28:37;;;;;;;29.55;18.42;;;10.20;99.90;;;;;;5055742;28;20032;-68
2024/02/04 08:31:02;;;;;;;28.25;18.38;;;10.30;99.90;;;;;;5055748;28;20017;-68
2024/02/04 08:33:28;;;;;;;26.95;16.92;;;10.30;99.90;;;;;;5055591;28;20018;-68
2024/02/04 08:35:53;;;;;;;30.58;17.60;;;10.30;99.90;;;;;;5055626;28;20039;-68
2024/02/04 08:38:19;;;;;;;26.05;16.92;;;10.30;99.90;;;;;;5055590;28;20037;-68
2024/02/04 08:40:44;;;;;;;25.90;15.25;;;10.30;99.90;;;;;;5055641;28;20059;-68
2024/02/04 08:43:10;;;;;;;29.58;16.58;;;10.40;99.90;;;;;;5055238;28;20083;-68
2024/02/04 08:45:35;;;;;;;24.80;15.40;;;10.40;99.90;;;;;;5055526;28;20041;-68
2024/02/04 08:48:01;;;;;;;27.80;16.25;;;10.30;99.90;;;;;;5055681;28;20067;-68
2024/02/04 08:50:27;;;;;;;26.10;16.20;;;10.30;99.90;;;;;;5055381;28;20040;-68
2024/02/04 08:52:52;;;;;;;24.45;14.88;;;10.40;99.90;;;;;;5055560;28;20082;-68
2024/02/04 08:55:18;;;;;;;27.75;14.68;;;10.20;99.90;;;;;;5055212;28;20108;-68
2024/02/04 08:57:44;;;;;;;28.00;15.30;;;10.00;99.90;;;;;;5055398;28;20104;-68
2024/02/04 09:00:11;;;;;;;30.75;16.30;;;10.10;99.90;;;;;;5055195;28;20036;-68
2024/02/04 09:02:37;;;;;;;26.42;14.88;;;10.10;99.90;;;;;;5055161;28;20029;-68
2024/02/04 09:05:04;;;;;;;31.98;16.50;;;10.10;99.90;;;;;;5055103;28;20029;-68
2024/02/04 09:07:31;;;;;;;26.95;15.02;;;10.10;99.90;;;;;;5055073;28;20552;-68
2024/02/04 09:09:56;;;;;;;27.27;15.63;;;10.00;99.90;;;;;;5055214;28;20051;-68
2024/02/04 09:12:22;;;;;;;29.92;15.60;;;10.00;99.90;;;;;;5055096;28;20029;-69
2024/02/04 09:14:48;;;;;;;28.92;15.32;;;9.80;99.90;;;;;;5054722;28;20028;-69
2024/02/04 09:17:13;;;;;;;31.92;17.27;;;9.90;99.90;;;;;;5055033;28;20021;-68
2024/02/04 09:19:39;;;;;;;30.05;15.07;;;9.70;99.90;;;;;;5054793;28;20029;-68
2024/02/04 09:22:05;;;;;;;24.55;12.20;;;9.60;99.90;;;;;;5054811;28;20556;-68
2024/02/04 09:24:31;;;;;;;21.02;12.40;;;9.50;99.90;;;;;;5054744;28;20438;-68
2024/02/04 09:26:56;;;;;;;21.83;13.05;;;9.50;99.90;;;;;;5054423;28;20033;-68
2024/02/04 09:29:22;;;;;;;23.42;13.27;;;9.50;99.90;;;;;;5054898;28;20036;-68
2024/02/04 09:31:49;;;;;;;26.60;14.43;;;9.60;99.90;;;;;;5053359;28;20087;-68
2024/02/04 09:34:15;;;;;;;21.83;12.65;;;9.70;99.90;;;;;;5054747;28;20467;-68
2024/02/04 09:36:40;;;;;;;26.65;12.95;;;9.80;99.90;;;;;;5054686;28;20033;-67
2024/02/04 09:39:06;;;;;;;21.63;12.55;;;9.90;99.90;;;;;;5054429;28;20099;-68
2024/02/04 09:41:32;;;;;;;25.60;12.20;;;9.90;99.90;;;;;;5054629;28;20055;-68
2024/02/04 09:43:58;;;;;;;23.63;11.60;;;9.90;99.90;;;;;;5054126;28;20041;-68
2024/02/04 09:46:24;;;;;;;21.00;12.23;;;10.00;99.90;;;;;;5054426;28;20048;-67
2024/02/04 09:48:51;;;;;;;20.42;11.07;;;10.10;99.90;;;;;;5054566;28;20394;-68
2024/02/04 09:51:16;;;;;;;13.15;9.90;;;10.10;99.90;;;;;;5054216;28;20071;-68
2024/02/04 09:53:44;;;;;;;15.98;9.82;;;10.20;99.90;;;;;;5054130;28;20057;-68
2024/02/04 09:56:11;;;;;;;17.80;8.10;;;10.40;99.90;;;;;;5054127;28;20479;-67
2024/02/04 09:58:37;;;;;;;14.80;8.63;;;10.40;99.90;;;;;;5054058;28;20092;-68
2024/02/04 10:01:05;;;;;;;10.68;7.80;;;10.40;99.90;;;;;;5054185;28;20025;-68
2024/02/04 10:03:30;;;;;;;12.77;7.88;;;10.50;99.90;;;;;;5053787;28;20028;-68
2024/02/04 10:05:56;;;;;;;14.07;8.07;;;10.50;99.90;;;;;;5053839;28;20029;-68
2024/02/04 10:08:22;;;;;;;12.90;7.40;;;10.50;99.90;;;;;;5054073;28;20025;-68
2024/02/04 10:10:48;;;;;;;12.63;7.50;;;10.60;99.90;;;;;;5053891;28;20071;-68
2024/02/04 10:13:13;;;;;;;9.68;6.55;;;10.50;99.90;;;;;;5053767;28;20025;-68
2024/02/04 10:15:39;;;;;;;12.77;7.03;;;10.50;99.90;;;;;;5053702;28;20060;-68
2024/02/04 10:18:06;;;;;;;13.07;6.97;;;10.50;99.90;;;;;;5053848;28;20492;-68
2024/02/04 10:20:32;;;;;;;10.48;5.72;;;10.40;99.90;;;;;;5053729;28;20063;-68
2024/02/04 10:22:58;;;;;;;10.88;6.57;;;10.40;99.90;;;;;;5053672;28;20075;-68
2024/02/04 10:25:23;;;;;;;11.50;6.50;;;10.30;99.90;;;;;;5053641;28;20495;-68
2024/02/04 10:27:49;;;;;;;10.60;7.72;;;10.20;99.90;;;;;;5051678;28;20082;-69
2024/02/04 10:30:21;;;;;;;10.88;6.85;;;10.10;99.90;;;;;;5053722;28;20072;-68
2024/02/04 10:32:49;;;;;;;13.68;7.63;;;10.10;99.90;;;;;;5053598;28;20487;-68
2024/02/04 10:35:15;;;;;;;12.18;7.55;;;10.00;99.90;;;;;;5053461;28;20396;-67
2024/02/04 10:37:41;;;;;;;11.02;7.95;;;10.00;99.90;;;;;;5053269;28;20037;-68
2024/02/04 10:40:07;;;;;;;15.77;8.88;;;9.90;99.90;;;;;;5053390;28;20024;-68
2024/02/04 10:42:35;;;;;;;13.30;8.18;;;9.90;99.90;;;;;;5053074;28;20067;-68
2024/02/04 10:45:04;;;;;;;12.82;8.18;;;10.00;99.90;;;;;;5053179;28;20098;-68
2024/02/04 10:47:32;;;;;;;13.07;7.88;;;10.00;99.90;;;;;;5053478;28;20049;-68
2024/02/04 10:50:00;;;;;;;12.88;7.13;;;10.00;99.90;;;;;;5053082;28;20033;-68
2024/02/04 10:52:28;;;;;;;12.43;7.65;;;10.00;99.90;;;;;;5053466;28;20037;-68
2024/02/04 10:54:54;;;;;;;17.83;8.75;;;10.20;99.90;;;;;;5053358;28;20048;-68
2024/02/04 10:57:22;;;;;;;17.92;7.95;;;10.30;99.90;;;;;;5053359;28;20382;-68
2024/02/04 10:59:48;;;;;;;12.48;7.55;;;10.30;99.90;;;;;;5053310;28;20032;-68
2024/02/04 11:02:16;;;;;;;14.45;6.95;;;10.30;99.90;;;;;;5053090;28;20095;-68
2024/02/04 11:04:42;;;;;;;12.98;6.75;;;10.30;99.90;;;;;;5053344;28;20086;-68
2024/02/04 11:07:09;;;;;;;10.20;6.55;;;10.30;99.90;;;;;;5052876;28;20029;-68
2024/02/04 11:09:36;;;;;;;10.85;7.07;;;10.20;99.90;;;;;;5053240;28;20017;-68
2024/02/04 11:12:05;;;;;;;8.20;6.72;;;10.20;99.90;;;;;;5053059;28;20021;-68
2024/02/04 11:14:32;;;;;;;11.82;7.07;;;10.20;99.90;;;;;;5053110;28;20097;-68
2024/02/04 11:17:37;;;;;;;12.57;8.35;;;10.10;99.90;;;;;;5053051;28;20502;-68
2024/02/04 11:20:34;;;;;;;10.55;7.95;;;10.10;99.90;;;;;;5053064;28;20029;-68
2024/02/04 11:23:28;;;;;;;10.68;7.28;;;10.10;99.90;;;;;;5052874;28;20087;-67
2024/02/04 11:25:56;;;;;;;14.43;7.97;;;10.10;99.90;;;;;;5052802;28;20127;-68
2024/02/04 11:28:22;;;;;;;13.88;8.65;;;10.10;99.90;;;;;;5052781;28;20116;-68
2024/02/04 11:30:50;;;;;;;12.52;8.10;;;10.10;99.90;;;;;;5052686;28;20090;-68
2024/02/04 11:33:19;;;;;;;15.13;8.82;;;10.10;99.90;;;;;;5052807;28;20079;-68
2024/02/04 11:35:44;;;;;;;15.35;9.45;;;10.10;99.90;;;;;;5053016;28;20025;-68
2024/02/04 11:38:11;;;;;;;13.57;9.02;;;10.10;99.90;;;;;;5053223;28;20437;-67
2024/02/04 11:40:37;;;;;;;16.80;10.10;;;10.10;99.90;;;;;;5055552;28;20053;-68
2024/02/04 11:43:06;;;;;;;17.63;10.85;;;10.10;99.90;;;;;;5056688;28;20120;-68
2024/02/04 11:45:32;;;;;;;18.55;10.48;;;10.00;99.90;;;;;;5056565;28;20095;-68
2024/02/04 11:48:01;;;;;;;15.68;9.95;;;10.00;99.90;;;;;;5056581;28;20394;-68
2024/02/04 11:50:32;;;;;;;16.30;10.23;;;10.20;99.90;;;;;;5056595;28;20079;-68
2024/02/04 11:53:05;;;;;;;11.80;8.40;;;10.20;99.90;;;;;;5056415;28;20589;-68
2024/02/04 11:55:30;;;;;;;13.30;8.80;;;10.30;99.90;;;;;;5056424;28;20479;-68
2024/02/04 11:57:56;;;;;;;13.80;7.82;;;10.30;99.90;;;;;;5056378;28;20086;-68
2024/02/04 12:00:22;;;;;;;10.80;7.05;;;10.40;99.90;;;;;;5056631;28;20029;-68
2024/02/04 12:02:48;;;;;;;11.52;7.25;;;10.40;99.90;;;;;;5056432;28;20174;-67
2024/02/04 12:05:14;;;;;;;10.57;7.00;;;10.50;99.90;;;;;;5056367;28;20564;-67
2024/02/04 12:07:40;;;;;;;9.90;6.63;;;10.40;99.90;;;;;;5056225;28;20021;-67
2024/02/04 12:10:07;;;;;;;10.93;6.20;;;10.50;99.90;;;;;;5056357;28;20025;-67
2024/02/04 12:12:33;;;;;;;11.02;6.28;;;10.50;99.90;;;;;;5055974;28;20116;-67
2024/02/04 12:15:00;;;;;;;12.95;7.15;;;10.50;99.90;;;;;;5056103;28;20047;-67
2024/02/04 12:17:26;;;;;;;8.35;5.57;;;10.50;99.90;;;;;;5056043;28;20372;-67
2024/02/04 12:19:53;;;;;;;12.63;7.38;;;10.60;99.90;;;;;;5055985;28;20044;-67
2024/02/04 12:22:18;;;;;;;12.45;6.78;;;10.60;99.90;;;;;;5056004;28;20519;-67
2024/02/04 12:24:45;;;;;;;12.30;7.57;;;10.60;99.90;;;;;;5055512;28;20052;-68
2024/02/04 12:27:11;;;;;;;10.60;7.40;;;10.60;99.90;;;;;;5055987;28;20112;-68